Capitol Logistics 228


PANC
Ted Stevens Anchorage International Airport
Anchorage, Alaska, US
KSEA
Seattle-Tacoma International Airport
Seattle, Washington, US

Route Details

Aircraft Information
Primary: Boeing 767-300BDSF
Backup: Not Available
Route Data
Distance: 1257nm
Sched. Duration: 3h 29m
Avg. Duration: 2h 84m (-45m)
Times Flown: 17
Recm'd Route: NOEND4 NOEND LAIRE BKA DUGGS YYJ MARNR7
Planned Altitude: 33,000ft
Origin Wx: PANC 271753Z 09004KT 1/4SM R07R/2200V3500FT FZFG VV003 M01/M02 A2990 RMK AO2 TWR VIS 1/2 SLP126 I1000 I6000 T10061017 10017 21022 52015 $
Dest. Wx: KSEA 271801Z 00000KT 10SM SCT028 SCT036 BKN250 09/05 A3041 RMK AO2 T00890050 $
Notes:

Financial History
Total Freight: 2,335,975lbs
Average Load: 137,410lbs/flt
Fuel Used: 836,507lbs
Avg. Fuel Used: 49,206lbs/flt
Fuel Expense: $1,042,429
Avg. Fuel Expense: $61,319
Avg. Fuel Cost: $1.25/lbs
Total Gross Income: $3,037,123
Pilot Pay: $3,403
Total Expenses: $328,893
Total Revenue: $1,654,257
Average Revenue: $178,654.28